Time;durP1;ratioP1;P1;durP2;ratioP2;P2;SDS_P1;SDS_P2;PMS_P1;PMS_P2;Temp;Humidity;BMP_temperature;BMP_pressure;BME280_temperature;BME280_humidity;BME280_pressure;Samples;Min_cycle;Max_cycle;Signal;HPM_P1;HPM_P2
2022/10/24 00:03:49;;;;;;;29.42;4.25;;;;;;;;;;8272433;28;20073;-62
2022/10/24 00:07:49;;;;;;;17.00;3.38;;;;;;;;;;8268805;28;20057;-62
2022/10/24 00:11:49;;;;;;;17.45;3.70;;;;;;;;;;8271473;28;20034;-62
2022/10/24 00:15:49;;;;;;;13.23;3.38;;;;;;;;;;8270975;28;20041;-62
2022/10/24 00:19:53;;;;;;;15.73;3.92;;;;;;;;;;8269442;28;20026;-63
2022/10/24 00:23:53;;;;;;;20.38;4.10;;;;;;;;;;8269586;28;20033;-62
2022/10/24 00:27:53;;;;;;;14.15;3.38;;;;;;;;;;8272351;28;20033;-61
2022/10/24 00:31:53;;;;;;;11.33;3.90;;;;;;;;;;8267395;28;20048;-61
2022/10/24 00:35:53;;;;;;;15.18;3.47;;;;;;;;;;8270578;28;20038;-62
2022/10/24 00:39:54;;;;;;;18.55;4.25;;;;;;;;;;8267778;28;20029;-62
2022/10/24 00:44:14;;;;;;;13.13;3.93;;;;;;;;;;8270719;28;20022;-61
2022/10/24 00:48:35;;;;;;;14.70;4.00;;;;;;;;;;8272581;28;20048;-62
2022/10/24 00:52:36;;;;;;;13.38;3.85;;;;;;;;;;8276776;28;20063;-62
2022/10/24 00:56:40;;;;;;;18.48;4.18;;;;;;;;;;8274742;28;20105;-62
2022/10/24 01:00:40;;;;;;;15.20;3.72;;;;;;;;;;8274420;28;20043;-61
2022/10/24 01:04:40;;;;;;;15.90;3.90;;;;;;;;;;8271747;28;20136;-61
2022/10/24 01:08:46;;;;;;;14.43;3.80;;;;;;;;;;8275357;28;20099;-62
2022/10/24 01:12:46;;;;;;;13.98;3.88;;;;;;;;;;8274022;28;20037;-62
2022/10/24 01:16:49;;;;;;;16.73;4.07;;;;;;;;;;8271708;28;20045;-62
2022/10/24 01:20:56;;;;;;;8.75;3.40;;;;;;;;;;8273319;28;20030;-62
2022/10/24 01:25:11;;;;;;;11.55;3.38;;;;;;;;;;8271572;28;20160;-62
2022/10/24 01:29:27;;;;;;;18.05;3.72;;;;;;;;;;8272595;28;20038;-62
2022/10/24 01:33:30;;;;;;;16.65;3.90;;;;;;;;;;8271473;28;20030;-62
2022/10/24 01:37:33;;;;;;;12.85;3.72;;;;;;;;;;8273300;28;20022;-62
2022/10/24 01:41:34;;;;;;;14.60;3.80;;;;;;;;;;8272777;28;20098;-62
2022/10/24 01:45:35;;;;;;;18.58;4.13;;;;;;;;;;8272448;28;20164;-62
2022/10/24 01:49:36;;;;;;;18.08;3.50;;;;;;;;;;8274482;28;20026;-62
2022/10/24 01:53:37;;;;;;;16.33;4.10;;;;;;;;;;8274224;28;20084;-63
2022/10/24 01:57:38;;;;;;;20.17;4.43;;;;;;;;;;8269334;28;20026;-62
2022/10/24 02:01:38;;;;;;;17.15;4.13;;;;;;;;;;8261814;28;20038;-62
2022/10/24 02:05:41;;;;;;;15.47;3.93;;;;;;;;;;8263410;28;20610;-62
2022/10/24 02:09:43;;;;;;;16.93;3.80;;;;;;;;;;8264158;28;20343;-62
2022/10/24 02:13:52;;;;;;;16.00;3.58;;;;;;;;;;8262121;28;20639;-61
2022/10/24 02:17:53;;;;;;;20.65;3.90;;;;;;;;;;8262804;28;20045;-62
2022/10/24 02:21:56;;;;;;;14.93;3.60;;;;;;;;;;8264600;28;20300;-62
2022/10/24 02:25:58;;;;;;;18.40;3.93;;;;;;;;;;8260522;28;20158;-62
2022/10/24 02:30:06;;;;;;;14.50;3.55;;;;;;;;;;8268499;28;20029;-62
2022/10/24 02:34:07;;;;;;;21.98;4.25;;;;;;;;;;8274004;28;20091;-62
2022/10/24 02:38:13;;;;;;;22.27;4.15;;;;;;;;;;8272987;28;20573;-62
2022/10/24 02:42:14;;;;;;;14.32;3.85;;;;;;;;;;8271631;28;20092;-62
2022/10/24 02:46:15;;;;;;;17.80;4.00;;;;;;;;;;8271250;28;20038;-62
2022/10/24 02:50:15;;;;;;;21.20;3.70;;;;;;;;;;8271625;28;20029;-63
2022/10/24 02:54:16;;;;;;;25.38;3.90;;;;;;;;;;8272555;28;20021;-62
2022/10/24 02:58:16;;;;;;;16.15;4.10;;;;;;;;;;8271739;28;20841;-62
2022/10/24 03:02:17;;;;;;;12.63;3.43;;;;;;;;;;8269366;28;20799;-62
2022/10/24 03:06:17;;;;;;;16.00;3.90;;;;;;;;;;8270902;28;20319;-62
2022/10/24 03:10:17;;;;;;;16.13;4.57;;;;;;;;;;8269976;28;20029;-62
2022/10/24 03:14:17;;;;;;;17.00;3.67;;;;;;;;;;8272045;28;20418;-63
2022/10/24 03:18:18;;;;;;;21.65;4.55;;;;;;;;;;8271525;28;20037;-62
2022/10/24 03:22:18;;;;;;;19.50;4.00;;;;;;;;;;8272185;28;20155;-63
2022/10/24 03:26:18;;;;;;;17.10;3.63;;;;;;;;;;8270317;28;20026;-62
2022/10/24 03:30:18;;;;;;;11.50;3.58;;;;;;;;;;8269289;28;20264;-62
2022/10/24 03:34:18;;;;;;;17.70;3.40;;;;;;;;;;8270130;28;20022;-62
2022/10/24 03:38:19;;;;;;;15.52;3.78;;;;;;;;;;8270737;28;20038;-62
2022/10/24 03:42:19;;;;;;;12.63;3.45;;;;;;;;;;8268779;28;20139;-62
2022/10/24 03:46:20;;;;;;;17.45;3.55;;;;;;;;;;8269890;28;20115;-62
2022/10/24 03:50:20;;;;;;;15.48;3.90;;;;;;;;;;8269716;28;20029;-62
2022/10/24 03:54:20;;;;;;;16.73;3.97;;;;;;;;;;8269921;28;20017;-62
2022/10/24 03:58:20;;;;;;;18.83;4.47;;;;;;;;;;8269503;28;20097;-62
2022/10/24 04:02:22;;;;;;;23.25;4.35;;;;;;;;;;8269187;28;20038;-62
2022/10/24 04:06:22;;;;;;;19.73;4.68;;;;;;;;;;8269377;28;20075;-63
2022/10/24 04:10:22;;;;;;;19.35;4.90;;;;;;;;;;8268677;28;20693;-62
2022/10/24 04:14:22;;;;;;;19.60;4.13;;;;;;;;;;8269471;28;20679;-66
2022/10/24 04:18:22;;;;;;;25.20;4.68;;;;;;;;;;8269565;28;20033;-62
2022/10/24 04:22:23;;;;;;;23.23;4.23;;;;;;;;;;8274670;28;20113;-62
2022/10/24 04:26:23;;;;;;;15.90;4.20;;;;;;;;;;8276377;28;20030;-62
2022/10/24 04:30:24;;;;;;;17.42;4.28;;;;;;;;;;8275059;28;20038;-62
2022/10/24 04:34:24;;;;;;;13.48;4.32;;;;;;;;;;8275348;28;20448;-63
2022/10/24 04:38:24;;;;;;;16.87;4.27;;;;;;;;;;8275033;28;20036;-62
2022/10/24 04:42:25;;;;;;;20.40;4.68;;;;;;;;;;8275600;28;20280;-62
2022/10/24 04:46:25;;;;;;;13.32;4.40;;;;;;;;;;8275174;28;20030;-61
2022/10/24 04:50:25;;;;;;;19.17;4.53;;;;;;;;;;8276420;28;20022;-62
2022/10/24 04:54:25;;;;;;;20.13;4.53;;;;;;;;;;8276526;28;20265;-63
2022/10/24 04:58:26;;;;;;;16.67;4.70;;;;;;;;;;8275024;28;20090;-62
2022/10/24 05:02:26;;;;;;;20.77;4.75;;;;;;;;;;8276152;28;20041;-62
2022/10/24 05:06:26;;;;;;;17.33;4.47;;;;;;;;;;8275015;28;20317;-62
2022/10/24 05:10:26;;;;;;;18.25;4.60;;;;;;;;;;8274138;28;20017;-64
2022/10/24 05:14:26;;;;;;;13.95;4.50;;;;;;;;;;8272873;28;20026;-62
2022/10/24 05:18:27;;;;;;;20.13;3.90;;;;;;;;;;8275905;28;21043;-62
2022/10/24 05:22:27;;;;;;;18.73;4.10;;;;;;;;;;8275423;28;20284;-62
2022/10/24 05:26:27;;;;;;;13.75;3.92;;;;;;;;;;8274644;28;20112;-62
2022/10/24 05:30:27;;;;;;;16.33;3.87;;;;;;;;;;8273968;28;20034;-62
2022/10/24 05:34:28;;;;;;;13.40;2.90;;;;;;;;;;8274002;28;20272;-62
2022/10/24 05:38:28;;;;;;;9.75;3.50;;;;;;;;;;8274733;28;20033;-62
2022/10/24 05:42:28;;;;;;;17.60;3.38;;;;;;;;;;8274590;28;20112;-61
2022/10/24 05:46:28;;;;;;;20.03;3.60;;;;;;;;;;8272616;28;20041;-63
2022/10/24 05:50:29;;;;;;;12.18;3.10;;;;;;;;;;8275818;28;20022;-63
2022/10/24 05:54:30;;;;;;;11.10;3.00;;;;;;;;;;8271975;28;20025;-62
2022/10/24 05:58:30;;;;;;;13.73;3.65;;;;;;;;;;8273144;28;20751;-62
2022/10/24 06:02:30;;;;;;;11.55;2.70;;;;;;;;;;8270995;28;20083;-63
2022/10/24 06:06:31;;;;;;;17.30;3.30;;;;;;;;;;8272341;28;20025;-62
2022/10/24 06:10:31;;;;;;;14.40;3.42;;;;;;;;;;8270692;28;20369;-62
2022/10/24 06:14:31;;;;;;;13.20;2.97;;;;;;;;;;8274027;28;20399;-62
2022/10/24 06:18:31;;;;;;;6.40;2.42;;;;;;;;;;8270330;28;20979;-62
2022/10/24 06:22:32;;;;;;;11.63;2.60;;;;;;;;;;8271105;28;20660;-62
2022/10/24 06:26:32;;;;;;;6.38;2.60;;;;;;;;;;8270844;28;20080;-62
2022/10/24 06:30:33;;;;;;;16.77;3.45;;;;;;;;;;8259547;28;20049;-63
2022/10/24 06:34:34;;;;;;;9.15;2.58;;;;;;;;;;8267731;28;20010;-62
2022/10/24 06:38:35;;;;;;;11.07;3.05;;;;;;;;;;8268832;28;20037;-62
2022/10/24 06:42:35;;;;;;;10.20;2.92;;;;;;;;;;8267405;28;20067;-62
2022/10/24 06:46:35;;;;;;;18.23;3.92;;;;;;;;;;8266992;28;20041;-65
2022/10/24 06:50:36;;;;;;;9.70;3.47;;;;;;;;;;8267510;28;20025;-62
2022/10/24 06:54:37;;;;;;;17.38;3.80;;;;;;;;;;8265290;28;20055;-62
2022/10/24 06:58:38;;;;;;;12.10;3.78;;;;;;;;;;8267902;28;20028;-62
2022/10/24 07:02:38;;;;;;;9.97;3.10;;;;;;;;;;8259437;28;20037;-62
2022/10/24 07:06:39;;;;;;;14.88;3.70;;;;;;;;;;8268391;28;20088;-62
2022/10/24 07:10:39;;;;;;;12.45;3.78;;;;;;;;;;8266861;28;20049;-62
2022/10/24 07:14:40;;;;;;;17.43;3.87;;;;;;;;;;8271734;28;20029;-62
2022/10/24 07:18:41;;;;;;;18.55;3.95;;;;;;;;;;8263184;28;20034;-62
2022/10/24 07:22:41;;;;;;;16.17;3.95;;;;;;;;;;8271322;28;20347;-62
2022/10/24 07:26:41;;;;;;;19.00;4.10;;;;;;;;;;8273596;28;20040;-62
2022/10/24 07:30:42;;;;;;;14.60;3.97;;;;;;;;;;8269970;28;20034;-64
2022/10/24 07:34:43;;;;;;;11.10;3.40;;;;;;;;;;8268498;28;20837;-62
2022/10/24 07:38:43;;;;;;;16.75;3.72;;;;;;;;;;8271652;28;20029;-62
2022/10/24 07:42:43;;;;;;;16.73;4.13;;;;;;;;;;8270074;28;20091;-62
2022/10/24 07:46:44;;;;;;;17.02;3.88;;;;;;;;;;8263502;28;20384;-62
2022/10/24 07:50:45;;;;;;;16.83;3.97;;;;;;;;;;8261847;28;20617;-62
2022/10/24 07:54:45;;;;;;;13.68;4.15;;;;;;;;;;8258260;28;20084;-62
2022/10/24 07:58:46;;;;;;;17.10;3.78;;;;;;;;;;8255920;28;20045;-62
2022/10/24 08:02:46;;;;;;;20.52;4.85;;;;;;;;;;8258369;28;20740;-62
2022/10/24 08:06:46;;;;;;;16.70;3.55;;;;;;;;;;8259955;28;20026;-62
2022/10/24 08:10:47;;;;;;;15.80;4.18;;;;;;;;;;8259483;28;20057;-62
2022/10/24 08:14:47;;;;;;;9.85;3.65;;;;;;;;;;8260916;28;20030;-63
2022/10/24 08:18:47;;;;;;;15.32;3.45;;;;;;;;;;8259179;28;20050;-62
2022/10/24 08:22:48;;;;;;;11.73;3.45;;;;;;;;;;8260026;28;20029;-62
2022/10/24 08:26:48;;;;;;;11.25;3.28;;;;;;;;;;8260358;28;20033;-62
2022/10/24 08:30:55;;;;;;;8.88;3.33;;;;;;;;;;8260099;28;20686;-62
2022/10/24 08:34:56;;;;;;;13.52;4.07;;;;;;;;;;8256824;28;20036;-62
2022/10/24 08:38:57;;;;;;;14.65;3.38;;;;;;;;;;8260202;28;21048;-62
2022/10/24 08:42:57;;;;;;;17.90;3.00;;;;;;;;;;8258877;28;20029;-62
2022/10/24 08:47:16;;;;;;;9.68;3.03;;;;;;;;;;8261539;28;20038;-62
2022/10/24 08:51:34;;;;;;;15.05;2.83;;;;;;;;;;8258839;28;20616;-62
2022/10/24 08:55:37;;;;;;;9.00;2.97;;;;;;;;;;8258189;28;20525;-62
2022/10/24 08:59:38;;;;;;;10.02;3.22;;;;;;;;;;8260591;28;20018;-63
2022/10/24 09:03:38;;;;;;;11.65;2.88;;;;;;;;;;8260874;28;20371;-62
2022/10/24 09:07:39;;;;;;;10.00;2.67;;;;;;;;;;8260260;28;20051;-62
2022/10/24 09:11:42;;;;;;;8.50;2.67;;;;;;;;;;8265425;28;20561;-62
2022/10/24 09:15:43;;;;;;;9.23;2.58;;;;;;;;;;8261902;28;20427;-62
2022/10/24 09:19:48;;;;;;;7.00;2.45;;;;;;;;;;8265524;28;20402;-63
2022/10/24 09:23:49;;;;;;;12.85;3.00;;;;;;;;;;8264712;28;20030;-62
2022/10/24 09:27:50;;;;;;;7.22;2.40;;;;;;;;;;8265362;28;20056;-62
2022/10/24 09:31:50;;;;;;;9.20;2.15;;;;;;;;;;8264642;28;20036;-62
2022/10/24 09:35:52;;;;;;;5.10;2.38;;;;;;;;;;8264057;28;20095;-62
2022/10/24 09:40:03;;;;;;;10.13;2.40;;;;;;;;;;8265144;28;20556;-62
2022/10/24 09:44:04;;;;;;;9.15;2.33;;;;;;;;;;8262030;28;20045;-62
2022/10/24 09:48:22;;;;;;;9.43;1.60;;;;;;;;;;8263583;28;20615;-62
2022/10/24 09:52:27;;;;;;;6.80;1.83;;;;;;;;;;8265263;28;20014;-62
2022/10/24 09:56:35;;;;;;;6.22;2.05;;;;;;;;;;8263603;28;20029;-62
2022/10/24 10:00:36;;;;;;;8.15;2.10;;;;;;;;;;8263841;28;20040;-62
2022/10/24 10:04:37;;;;;;;7.55;1.88;;;;;;;;;;8264013;28;20046;-62
2022/10/24 10:08:37;;;;;;;6.78;1.70;;;;;;;;;;8264131;28;20035;-62
2022/10/24 10:12:39;;;;;;;5.67;1.73;;;;;;;;;;8262579;28;20030;-62
2022/10/24 10:16:40;;;;;;;6.82;1.63;;;;;;;;;;8262468;28;20277;-62
2022/10/24 10:20:41;;;;;;;6.82;1.50;;;;;;;;;;8262213;28;20030;-62
2022/10/24 10:24:42;;;;;;;4.70;1.73;;;;;;;;;;8264806;28;20021;-62
2022/10/24 10:28:53;;;;;;;5.90;1.52;;;;;;;;;;8263823;28;20033;-62
2022/10/24 10:33:12;;;;;;;6.45;1.70;;;;;;;;;;8262615;28;20392;-62
2022/10/24 10:37:24;;;;;;;5.30;1.50;;;;;;;;;;8263279;28;20033;-62
2022/10/24 10:41:27;;;;;;;4.35;1.50;;;;;;;;;;8258116;28;20096;-62
2022/10/24 10:45:38;;;;;;;5.90;1.80;;;;;;;;;;8260322;28;20049;-62
2022/10/24 10:49:39;;;;;;;3.60;1.67;;;;;;;;;;8261890;28;20067;-62
2022/10/24 10:53:39;;;;;;;4.18;2.00;;;;;;;;;;8264114;28;20076;-62
2022/10/24 10:58:00;;;;;;;11.95;1.77;;;;;;;;;;8261237;28;20026;-62
2022/10/24 11:02:12;;;;;;;4.43;1.50;;;;;;;;;;8262804;28;20172;-62
2022/10/24 11:06:15;;;;;;;5.30;1.50;;;;;;;;;;8263067;28;20055;-62
2022/10/24 11:10:17;;;;;;;6.53;2.00;;;;;;;;;;8262767;28;20021;-62
2022/10/24 11:14:32;;;;;;;4.55;1.63;;;;;;;;;;8262563;28;20021;-62
2022/10/24 11:18:34;;;;;;;6.20;1.40;;;;;;;;;;8262399;28;20041;-62
2022/10/24 11:22:47;;;;;;;7.70;1.40;;;;;;;;;;8260223;28;20084;-63
2022/10/24 11:26:52;;;;;;;5.38;1.58;;;;;;;;;;8259782;28;20494;-62
2022/10/24 11:30:55;;;;;;;4.18;1.45;;;;;;;;;;8261395;28;20038;-62
2022/10/24 11:35:15;;;;;;;4.93;1.50;;;;;;;;;;8262453;28;20030;-62
2022/10/24 11:39:15;;;;;;;8.52;1.60;;;;;;;;;;8262191;28;20928;-62
2022/10/24 11:43:15;;;;;;;6.88;1.77;;;;;;;;;;8260303;28;20030;-63
2022/10/24 11:47:39;;;;;;;7.60;1.60;;;;;;;;;;8261502;28;20070;-63
2022/10/24 11:51:56;;;;;;;5.43;1.50;;;;;;;;;;8261762;28;20029;-62
2022/10/24 11:56:11;;;;;;;2.55;1.20;;;;;;;;;;8262476;28;22518;-63
2022/10/24 12:00:17;;;;;;;5.80;1.50;;;;;;;;;;8260924;28;20022;-62
2022/10/24 12:04:20;;;;;;;5.90;1.38;;;;;;;;;;8260628;28;20260;-62
2022/10/24 12:08:32;;;;;;;9.48;1.70;;;;;;;;;;8258697;28;20091;-62
2022/10/24 12:13:07;;;;;;;6.18;1.50;;;;;;;;;;8261166;28;20033;-61
2022/10/24 12:17:18;;;;;;;4.43;1.20;;;;;;;;;;8222481;28;20041;-61
2022/10/24 12:21:21;;;;;;;4.47;1.40;;;;;;;;;;8262073;28;20029;-61
2022/10/24 12:25:31;;;;;;;6.72;1.55;;;;;;;;;;8260199;28;20498;-61
2022/10/24 12:29:32;;;;;;;6.32;1.75;;;;;;;;;;8259092;28;20160;-61
2022/10/24 12:33:32;;;;;;;9.50;1.88;;;;;;;;;;8257764;28;20468;-61
2022/10/24 12:37:33;;;;;;;4.27;1.33;;;;;;;;;;8260580;28;20044;-61
2022/10/24 12:41:35;;;;;;;7.07;1.80;;;;;;;;;;8259275;28;20022;-62
2022/10/24 12:45:35;;;;;;;4.25;1.30;;;;;;;;;;8266921;28;20362;-62
2022/10/24 12:49:37;;;;;;;7.45;1.50;;;;;;;;;;8265138;28;20593;-62
2022/10/24 12:53:38;;;;;;;6.90;1.83;;;;;;;;;;8266523;28;20021;-60
2022/10/24 12:57:44;;;;;;;5.78;1.38;;;;;;;;;;8267796;28;20032;-60
2022/10/24 13:01:45;;;;;;;3.45;1.10;;;;;;;;;;8266180;28;20415;-61
2022/10/24 13:05:45;;;;;;;2.80;1.30;;;;;;;;;;8265583;28;20037;-60
2022/10/24 13:10:04;;;;;;;2.92;1.35;;;;;;;;;;8264540;28;20037;-61
2022/10/24 13:14:19;;;;;;;5.85;1.10;;;;;;;;;;8265774;28;20017;-61
2022/10/24 13:18:37;;;;;;;5.22;1.27;;;;;;;;;;8266349;28;20119;-60
2022/10/24 13:22:38;;;;;;;2.80;1.05;;;;;;;;;;8266914;28;20037;-61
2022/10/24 13:26:39;;;;;;;3.88;1.15;;;;;;;;;;8256200;28;20410;-61
2022/10/24 13:30:39;;;;;;;3.50;0.95;;;;;;;;;;8264056;28;20095;-61
2022/10/24 13:34:49;;;;;;;4.93;1.10;;;;;;;;;;8269327;28;20037;-62
2022/10/24 13:38:53;;;;;;;1.83;0.93;;;;;;;;;;8266211;28;20029;-62
2022/10/24 13:42:57;;;;;;;2.63;1.08;;;;;;;;;;8264025;28;20057;-61
2022/10/24 13:46:57;;;;;;;;;;;;;;;;;;8259304;28;20140;-65
2022/10/24 13:50:57;;;;;;;3.38;1.20;;;;;;;;;;8263301;28;19960;-61
2022/10/24 13:55:14;;;;;;;5.35;1.08;;;;;;;;;;8260070;28;20541;-62
2022/10/24 13:59:36;;;;;;;3.40;1.08;;;;;;;;;;8260470;28;20124;-61
2022/10/24 14:03:41;;;;;;;4.32;1.13;;;;;;;;;;8259666;28;20581;-61
2022/10/24 14:07:43;;;;;;;4.28;1.20;;;;;;;;;;8260739;28;20395;-61
2022/10/24 14:11:44;;;;;;;4.63;1.13;;;;;;;;;;8259789;28;20374;-61
2022/10/24 14:15:49;;;;;;;4.85;1.10;;;;;;;;;;8261317;28;20048;-61
2022/10/24 14:19:54;;;;;;;5.65;1.27;;;;;;;;;;8260307;28;20344;-61
2022/10/24 14:23:55;;;;;;;2.90;1.02;;;;;;;;;;8260406;28;20341;-62
2022/10/24 14:28:00;;;;;;;3.15;1.10;;;;;;;;;;8260620;28;20339;-62
2022/10/24 14:32:02;;;;;;;7.55;1.20;;;;;;;;;;8259849;28;20061;-62
2022/10/24 14:36:02;;;;;;;7.15;1.30;;;;;;;;;;8260822;28;20029;-61
2022/10/24 14:40:03;;;;;;;3.90;1.23;;;;;;;;;;8259771;28;20366;-61
2022/10/24 14:44:04;;;;;;;4.13;1.30;;;;;;;;;;8259325;28;20064;-61
2022/10/24 14:48:12;;;;;;;8.75;1.20;;;;;;;;;;8256444;28;20243;-61
2022/10/24 14:52:13;;;;;;;3.70;1.05;;;;;;;;;;8258280;28;20029;-61
2022/10/24 14:56:24;;;;;;;2.78;1.02;;;;;;;;;;8260163;28;20076;-63
2022/10/24 15:00:26;;;;;;;4.07;1.20;;;;;;;;;;8261197;28;20048;-61
2022/10/24 15:04:28;;;;;;;3.22;1.23;;;;;;;;;;8259338;28;20018;-61
2022/10/24 15:08:35;;;;;;;5.35;0.88;;;;;;;;;;8259651;28;20030;-61
2022/10/24 15:12:46;;;;;;;4.30;1.10;;;;;;;;;;8258262;28;20021;-61
2022/10/24 15:16:46;;;;;;;5.50;1.00;;;;;;;;;;8259149;28;20049;-61
2022/10/24 15:20:49;;;;;;;3.70;1.33;;;;;;;;;;8257629;28;20677;-61
2022/10/24 15:24:50;;;;;;;4.13;0.97;;;;;;;;;;8258415;28;20035;-62
2022/10/24 15:29:04;;;;;;;4.68;0.98;;;;;;;;;;8259538;28;20067;-62
2022/10/24 15:33:05;;;;;;;8.65;1.15;;;;;;;;;;8260233;28;20357;-61
2022/10/24 15:37:06;;;;;;;4.82;1.17;;;;;;;;;;8257802;28;20444;-61
2022/10/24 15:41:08;;;;;;;3.50;1.00;;;;;;;;;;8257899;28;20036;-61
2022/10/24 15:45:15;;;;;;;5.22;1.10;;;;;;;;;;8258094;28;20025;-62
2022/10/24 15:49:16;;;;;;;2.08;1.02;;;;;;;;;;8256948;28;20499;-62
2022/10/24 15:53:17;;;;;;;6.03;1.35;;;;;;;;;;8257791;28;20558;-61
2022/10/24 15:57:18;;;;;;;5.55;1.50;;;;;;;;;;8258351;28;20032;-61
2022/10/24 16:01:25;;;;;;;4.63;1.60;;;;;;;;;;8255335;28;20440;-61
2022/10/24 16:05:32;;;;;;;4.40;1.15;;;;;;;;;;8255715;28;20053;-61
2022/10/24 16:09:32;;;;;;;3.72;1.30;;;;;;;;;;8257233;28;20334;-61
2022/10/24 16:13:33;;;;;;;4.38;1.30;;;;;;;;;;8257157;28;20434;-61
2022/10/24 16:17:33;;;;;;;4.63;1.17;;;;;;;;;;8256626;28;20100;-61
2022/10/24 16:21:33;;;;;;;5.20;1.20;;;;;;;;;;8262259;28;20084;-61
2022/10/24 16:25:35;;;;;;;4.35;1.20;;;;;;;;;;8265005;28;20158;-61
2022/10/24 16:29:35;;;;;;;6.07;1.13;;;;;;;;;;8265543;28;20124;-61
2022/10/24 16:33:35;;;;;;;4.47;1.40;;;;;;;;;;8260712;28;20065;-61
2022/10/24 16:37:35;;;;;;;6.83;1.47;;;;;;;;;;8264118;28;20379;-61
2022/10/24 16:41:36;;;;;;;5.23;1.40;;;;;;;;;;8263333;28;20034;-62
2022/10/24 16:45:36;;;;;;;5.80;1.38;;;;;;;;;;8261779;28;20588;-61
2022/10/24 16:49:36;;;;;;;6.30;1.35;;;;;;;;;;8262119;28;20120;-62
2022/10/24 16:53:36;;;;;;;4.40;1.27;;;;;;;;;;8262420;28;20076;-61
2022/10/24 16:57:37;;;;;;;5.03;1.23;;;;;;;;;;8261768;28;20060;-62
2022/10/24 17:01:37;;;;;;;7.05;1.30;;;;;;;;;;8262336;28;20624;-62
2022/10/24 17:05:37;;;;;;;9.30;2.00;;;;;;;;;;8261516;28;20021;-61
2022/10/24 17:09:37;;;;;;;4.17;1.33;;;;;;;;;;8262055;28;20022;-61
2022/10/24 17:13:37;;;;;;;5.78;1.70;;;;;;;;;;8262136;28;20330;-61
2022/10/24 17:17:38;;;;;;;6.85;1.30;;;;;;;;;;8261211;28;20061;-61
2022/10/24 17:21:40;;;;;;;4.32;1.33;;;;;;;;;;8260594;28;20119;-61
2022/10/24 17:25:40;;;;;;;7.13;1.52;;;;;;;;;;8262418;28;20095;-61
2022/10/24 17:29:41;;;;;;;6.45;1.70;;;;;;;;;;8261437;28;20091;-61
2022/10/24 17:33:41;;;;;;;4.18;1.27;;;;;;;;;;8260160;28;20033;-61
2022/10/24 17:37:46;;;;;;;4.73;0.90;;;;;;;;;;8261505;28;20234;-61
2022/10/24 17:41:46;;;;;;;6.95;1.60;;;;;;;;;;8259665;28;20276;-61
2022/10/24 17:45:47;;;;;;;5.37;1.40;;;;;;;;;;8261298;28;20050;-62
2022/10/24 17:49:47;;;;;;;3.45;1.63;;;;;;;;;;8260588;28;20377;-62
2022/10/24 17:53:48;;;;;;;9.52;1.60;;;;;;;;;;8260760;28;20537;-61
2022/10/24 17:57:48;;;;;;;8.57;1.20;;;;;;;;;;8261207;28;20510;-61
2022/10/24 18:01:48;;;;;;;5.47;1.23;;;;;;;;;;8260175;28;20394;-61
2022/10/24 18:05:48;;;;;;;6.10;1.50;;;;;;;;;;8260573;28;20034;-61
2022/10/24 18:09:49;;;;;;;7.05;1.20;;;;;;;;;;8259479;28;20594;-61
2022/10/24 18:13:49;;;;;;;5.05;1.23;;;;;;;;;;8260551;28;20034;-61
2022/10/24 18:17:49;;;;;;;9.73;2.03;;;;;;;;;;8260526;28;20582;-62
2022/10/24 18:21:49;;;;;;;5.90;1.30;;;;;;;;;;8258568;28;20033;-62
2022/10/24 18:25:49;;;;;;;6.60;1.40;;;;;;;;;;8260400;28;20734;-61
2022/10/24 18:29:49;;;;;;;7.78;1.40;;;;;;;;;;8258352;28;20025;-62
2022/10/24 18:33:50;;;;;;;5.90;1.75;;;;;;;;;;8259685;28;20582;-62
2022/10/24 18:37:50;;;;;;;6.22;1.30;;;;;;;;;;8261049;28;20167;-62
2022/10/24 18:41:55;;;;;;;4.88;1.38;;;;;;;;;;8259040;28;20405;-61
2022/10/24 18:45:55;;;;;;;3.75;1.40;;;;;;;;;;8260241;28;20132;-62
2022/10/24 18:49:56;;;;;;;4.05;1.20;;;;;;;;;;8259162;28;21743;-61
2022/10/24 18:53:58;;;;;;;6.18;1.35;;;;;;;;;;8259214;28;20029;-61
2022/10/24 18:57:59;;;;;;;6.25;1.60;;;;;;;;;;8259559;28;20286;-61
2022/10/24 19:02:23;;;;;;;6.25;1.50;;;;;;;;;;8258590;28;20608;-61
2022/10/24 19:06:24;;;;;;;10.30;1.45;;;;;;;;;;8258918;28;20032;-61
2022/10/24 19:10:26;;;;;;;6.90;1.35;;;;;;;;;;8259815;28;20023;-61
2022/10/24 19:14:26;;;;;;;8.00;1.67;;;;;;;;;;8258544;28;20022;-61
2022/10/24 19:18:27;;;;;;;6.18;1.55;;;;;;;;;;8259517;28;20038;-61
2022/10/24 19:22:29;;;;;;;6.57;1.80;;;;;;;;;;8259289;28;20073;-61
2022/10/24 19:26:29;;;;;;;11.63;1.90;;;;;;;;;;8258773;28;20056;-61
2022/10/24 19:30:29;;;;;;;5.78;1.50;;;;;;;;;;8256482;28;20034;-62
2022/10/24 19:34:29;;;;;;;7.20;1.48;;;;;;;;;;8259048;28;20423;-62
2022/10/24 19:38:30;;;;;;;5.47;1.52;;;;;;;;;;8258924;28;20381;-62
2022/10/24 19:42:31;;;;;;;4.57;1.40;;;;;;;;;;8257032;28;20410;-61
2022/10/24 19:46:31;;;;;;;5.80;1.50;;;;;;;;;;8258071;28;20498;-61
2022/10/24 19:50:31;;;;;;;3.60;1.10;;;;;;;;;;8258089;28;20029;-61
2022/10/24 19:54:32;;;;;;;5.97;1.30;;;;;;;;;;8255633;28;20029;-62
2022/10/24 19:58:32;;;;;;;2.90;1.07;;;;;;;;;;8256820;28;20108;-61
2022/10/24 20:02:33;;;;;;;3.38;1.45;;;;;;;;;;8258124;28;20815;-61
2022/10/24 20:06:33;;;;;;;5.28;1.15;;;;;;;;;;8259607;28;20428;-61
2022/10/24 20:10:34;;;;;;;6.45;1.27;;;;;;;;;;8255904;28;20545;-60
2022/10/24 20:14:34;;;;;;;5.00;1.40;;;;;;;;;;8258379;28;20446;-62
2022/10/24 20:18:35;;;;;;;5.43;1.30;;;;;;;;;;8257253;28;20506;-61
2022/10/24 20:22:35;;;;;;;5.85;1.23;;;;;;;;;;8258683;28;20085;-61
2022/10/24 20:26:35;;;;;;;5.93;1.45;;;;;;;;;;8255227;28;20502;-61
2022/10/24 20:30:40;;;;;;;4.88;1.25;;;;;;;;;;8257959;28;20128;-61
2022/10/24 20:34:40;;;;;;;6.15;1.40;;;;;;;;;;8252350;28;20009;-61
2022/10/24 20:38:40;;;;;;;6.97;1.10;;;;;;;;;;8259566;28;20032;-61
2022/10/24 20:42:40;;;;;;;3.92;1.42;;;;;;;;;;8254304;28;20766;-61
2022/10/24 20:46:41;;;;;;;5.35;1.20;;;;;;;;;;8256366;28;20553;-61
2022/10/24 20:50:41;;;;;;;4.00;1.13;;;;;;;;;;8259559;28;20026;-61
2022/10/24 20:54:41;;;;;;;5.25;1.48;;;;;;;;;;8254329;28;20819;-61
2022/10/24 20:58:42;;;;;;;7.07;1.25;;;;;;;;;;8259293;28;20097;-61
2022/10/24 21:02:42;;;;;;;4.85;1.13;;;;;;;;;;8259753;28;20049;-61
2022/10/24 21:06:42;;;;;;;3.67;1.20;;;;;;;;;;8265480;28;20626;-61
2022/10/24 21:10:43;;;;;;;3.40;1.03;;;;;;;;;;8266180;28;20029;-61
2022/10/24 21:14:43;;;;;;;3.97;1.10;;;;;;;;;;8267224;28;20350;-61
2022/10/24 21:18:43;;;;;;;3.53;1.27;;;;;;;;;;8265316;28;20070;-61
2022/10/24 21:22:43;;;;;;;8.13;1.13;;;;;;;;;;8266320;28;20418;-61
2022/10/24 21:26:43;;;;;;;3.08;1.45;;;;;;;;;;8265808;28;20036;-61
2022/10/24 21:30:44;;;;;;;7.53;1.48;;;;;;;;;;8264526;28;20072;-61
2022/10/24 21:34:44;;;;;;;3.63;1.30;;;;;;;;;;8271991;28;20083;-61
2022/10/24 21:38:45;;;;;;;3.60;1.05;;;;;;;;;;8274967;28;20033;-65
2022/10/24 21:42:45;;;;;;;6.43;1.15;;;;;;;;;;8273035;28;20044;-68
2022/10/24 21:46:45;;;;;;;4.72;1.27;;;;;;;;;;8273023;28;20479;-62
2022/10/24 21:50:45;;;;;;;5.13;1.67;;;;;;;;;;8271817;28;20540;-61
2022/10/24 21:54:45;;;;;;;5.83;1.30;;;;;;;;;;8277337;28;20034;-62
2022/10/24 21:58:50;;;;;;;3.47;1.35;;;;;;;;;;8273019;28;20284;-61
2022/10/24 22:02:50;;;;;;;3.42;1.25;;;;;;;;;;8272648;28;20442;-61
2022/10/24 22:06:51;;;;;;;8.35;1.20;;;;;;;;;;8271898;28;20029;-61
2022/10/24 22:10:58;;;;;;;2.10;0.82;;;;;;;;;;8271384;28;20029;-61
2022/10/24 22:14:58;;;;;;;7.93;1.10;;;;;;;;;;8267021;28;20509;-61
2022/10/24 22:19:00;;;;;;;2.08;0.90;;;;;;;;;;8271806;28;20066;-60
2022/10/24 22:23:01;;;;;;;2.70;1.00;;;;;;;;;;8271483;28;20036;-62
2022/10/24 22:27:01;;;;;;;3.63;0.90;;;;;;;;;;8274378;28;20030;-62
2022/10/24 22:31:01;;;;;;;4.43;0.90;;;;;;;;;;8272030;28;20065;-61
2022/10/24 22:35:02;;;;;;;3.28;1.00;;;;;;;;;;8273618;28;20104;-61
2022/10/24 22:39:03;;;;;;;1.42;0.80;;;;;;;;;;8273888;28;20184;-62
2022/10/24 22:43:03;;;;;;;5.15;1.30;;;;;;;;;;8270774;28;20033;-61
2022/10/24 22:47:22;;;;;;;4.83;1.20;;;;;;;;;;8269870;28;20494;-61
2022/10/24 22:51:22;;;;;;;4.35;0.95;;;;;;;;;;8273336;28;20275;-62
2022/10/24 22:55:28;;;;;;;4.55;0.90;;;;;;;;;;8270077;28;20025;-61
2022/10/24 22:59:28;;;;;;;2.70;0.98;;;;;;;;;;8272170;28;20029;-61
2022/10/24 23:03:53;;;;;;;4.75;1.10;;;;;;;;;;8268399;28;20038;-61
2022/10/24 23:07:53;;;;;;;3.03;0.85;;;;;;;;;;8271852;28;20503;-61
2022/10/24 23:11:53;;;;;;;2.88;0.90;;;;;;;;;;8270748;28;20057;-62
2022/10/24 23:15:55;;;;;;;4.15;1.00;;;;;;;;;;8271193;28;20037;-61
2022/10/24 23:19:56;;;;;;;5.35;1.10;;;;;;;;;;8269996;28;20504;-61
2022/10/24 23:23:56;;;;;;;2.53;0.82;;;;;;;;;;8271946;28;20035;-63
2022/10/24 23:28:19;;;;;;;5.80;1.00;;;;;;;;;;8270059;28;20039;-61
2022/10/24 23:32:21;;;;;;;6.22;1.10;;;;;;;;;;8271863;28;20042;-62
2022/10/24 23:36:21;;;;;;;5.25;1.42;;;;;;;;;;8271120;28;20025;-61
2022/10/24 23:40:27;;;;;;;3.03;1.00;;;;;;;;;;8270360;28;20022;-61
2022/10/24 23:44:28;;;;;;;2.85;0.88;;;;;;;;;;8269780;28;20478;-62
2022/10/24 23:48:43;;;;;;;6.07;1.20;;;;;;;;;;8269497;28;20092;-66
2022/10/24 23:52:59;;;;;;;3.15;1.10;;;;;;;;;;8268657;28;20176;-62
2022/10/24 23:56:59;;;;;;;3.40;1.17;;;;;;;;;;8269706;28;20091;-61
